createdAt,value
2019-04-06T03:02:49.450Z,23.23
2019-04-06T03:05:18.608Z,24.13
2019-04-06T03:07:47.536Z,23.80
2019-04-06T03:10:16.089Z,23.60
2019-04-06T03:12:44.667Z,24.53
2019-04-06T03:15:13.393Z,24.97
2019-04-06T03:17:42.434Z,24.63
2019-04-06T03:20:11.363Z,25.77
2019-04-06T03:22:40.013Z,23.50
2019-04-06T03:25:08.587Z,24.30
2019-04-06T03:27:37.159Z,22.70
2019-04-06T03:30:06.898Z,23.63
2019-04-06T03:32:35.777Z,24.03
2019-04-06T03:35:04.602Z,23.07
2019-04-06T03:37:33.519Z,23.37
2019-04-06T03:40:02.374Z,23.00
2019-04-06T03:42:30.967Z,22.53
2019-04-06T03:44:59.529Z,23.00
2019-04-06T03:47:28.507Z,23.67
2019-04-06T03:49:57.156Z,24.07
2019-04-06T03:52:26.002Z,23.50
2019-04-06T03:54:54.833Z,22.17
2019-04-06T03:57:23.438Z,23.40
2019-04-06T03:59:52.279Z,23.97
2019-04-06T04:02:20.871Z,24.60
2019-04-06T04:04:49.691Z,22.60
2019-04-06T04:07:18.369Z,22.90
2019-04-06T04:09:46.940Z,23.27
2019-04-06T04:12:15.506Z,23.03
2019-04-06T04:14:44.117Z,22.60
2019-04-06T04:17:12.946Z,23.90
2019-04-06T04:19:41.874Z,24.17
2019-04-06T04:22:10.463Z,23.83
2019-04-06T04:24:39.285Z,23.90
2019-04-06T04:27:08.386Z,22.47
2019-04-06T04:29:36.919Z,24.30
2019-04-06T04:32:05.531Z,23.33
2019-04-06T04:34:34.148Z,23.23
2019-04-06T04:37:02.743Z,23.50
2019-04-06T04:39:31.697Z,22.23
2019-04-06T04:42:00.349Z,22.97
2019-04-06T04:44:29.546Z,23.80
2019-04-06T04:46:58.257Z,23.13
2019-04-06T04:49:26.855Z,23.63
2019-04-06T04:51:55.439Z,21.47
2019-04-06T04:54:24.275Z,22.80
2019-04-06T04:56:52.955Z,23.83
2019-04-06T04:59:21.583Z,23.63
2019-04-06T05:01:50.158Z,23.03
2019-04-06T05:04:19.127Z,23.47
2019-04-06T05:06:48.011Z,23.03
2019-04-06T05:09:17.105Z,22.67
2019-04-06T05:11:45.655Z,23.83
2019-04-06T05:14:51.089Z,23.70
2019-04-06T05:17:19.930Z,24.53
2019-04-06T05:19:48.747Z,24.53
2019-04-06T05:22:17.374Z,23.87
2019-04-06T05:24:45.940Z,23.77
2019-04-06T05:27:14.904Z,25.33
2019-04-06T05:29:43.767Z,25.43
2019-04-06T05:32:12.326Z,25.30
2019-04-06T05:34:41.184Z,24.40
2019-04-06T05:37:09.804Z,23.83
2019-04-06T05:39:38.386Z,23.37
2019-04-06T05:42:07.006Z,25.47
2019-04-06T05:44:35.585Z,23.87
2019-04-06T05:47:04.171Z,24.17
2019-04-06T05:49:32.734Z,24.27
2019-04-06T05:52:01.333Z,23.83
2019-04-06T05:54:30.082Z,23.23
2019-04-06T05:56:58.649Z,24.17
2019-04-06T05:59:27.428Z,24.67
2019-04-06T06:01:56.296Z,24.37
2019-04-06T06:04:25.312Z,24.37
2019-04-06T06:06:53.868Z,24.30
2019-04-06T06:09:22.619Z,24.50
2019-04-06T06:11:51.383Z,24.53
2019-04-06T06:14:20.010Z,24.37
2019-04-06T06:16:48.598Z,25.47
2019-04-06T06:19:17.462Z,24.37
2019-04-06T06:21:46.027Z,24.93
2019-04-06T06:24:14.966Z,24.30
2019-04-06T06:26:43.638Z,23.90
2019-04-06T06:29:12.308Z,25.67
2019-04-06T06:31:41.178Z,24.27
2019-04-06T06:34:09.743Z,23.80
2019-04-06T06:36:38.327Z,24.67
2019-04-06T06:39:08.160Z,25.57
2019-04-06T06:41:37.022Z,25.33
2019-04-06T06:44:05.966Z,25.30
2019-04-06T06:46:34.598Z,25.53
2019-04-06T06:49:03.231Z,24.73
2019-04-06T06:51:31.816Z,25.37
2019-04-06T06:54:00.398Z,23.10
2019-04-06T06:56:28.963Z,24.97
2019-04-06T06:58:57.530Z,24.50
2019-04-06T07:01:26.498Z,23.30
2019-04-06T07:03:55.551Z,23.80
2019-04-06T07:06:24.219Z,24.33
2019-04-06T07:08:52.787Z,23.37
2019-04-06T07:11:21.513Z,25.97
2019-04-06T07:13:50.211Z,25.07
2019-04-06T07:16:18.966Z,24.27
2019-04-06T07:18:47.567Z,24.77
2019-04-06T07:21:16.904Z,26.10
2019-04-06T07:23:45.810Z,25.20
2019-04-06T07:26:14.375Z,25.47
2019-04-06T07:28:42.951Z,24.43
2019-04-06T07:31:11.531Z,25.57
2019-04-06T07:33:40.118Z,24.17
2019-04-06T07:36:08.694Z,25.07
2019-04-06T07:38:38.292Z,25.47
2019-04-06T07:41:07.513Z,26.43
2019-04-06T07:43:36.305Z,24.67
2019-04-06T07:46:05.053Z,24.53
2019-04-06T07:48:33.706Z,25.97
2019-04-06T07:51:02.298Z,23.97
2019-04-06T07:53:30.862Z,25.00
2019-04-06T07:55:59.463Z,25.50
2019-04-06T07:58:28.040Z,24.53
2019-04-06T08:00:56.679Z,23.60
2019-04-06T08:03:25.291Z,23.37
2019-04-06T08:05:53.897Z,24.13
2019-04-06T08:08:22.498Z,23.57
2019-04-06T08:10:51.111Z,24.47
2019-04-06T08:13:20.062Z,24.03
2019-04-06T08:15:48.701Z,23.00
2019-04-06T08:18:17.302Z,21.50
2019-04-06T08:20:46.051Z,21.10
2019-04-06T08:23:14.650Z,20.37
2019-04-06T08:25:43.218Z,20.83
2019-04-06T08:28:11.807Z,19.70
2019-04-06T08:30:46.368Z,20.83
2019-04-06T08:33:10.985Z,18.77
2019-04-06T08:35:39.545Z,19.13
2019-04-06T08:38:08.122Z,18.40
2019-04-06T08:40:36.985Z,18.20
2019-04-06T08:43:05.562Z,17.47
2019-04-06T08:45:34.182Z,18.00
2019-04-06T08:48:02.768Z,17.07
2019-04-06T08:50:32.320Z,17.90
2019-04-06T08:53:00.866Z,16.50
2019-04-06T08:55:29.426Z,17.12
2019-04-06T08:57:58.018Z,17.85
2019-04-06T09:00:26.592Z,15.63
2019-04-06T09:02:55.299Z,17.48
2019-04-06T09:05:23.925Z,17.07
2019-04-06T09:07:53.095Z,17.50
2019-04-06T09:10:21.695Z,15.72
2019-04-06T09:12:50.261Z,16.27
2019-04-06T09:15:18.832Z,15.75
2019-04-06T09:17:47.438Z,15.95
2019-04-06T09:20:17.371Z,16.87
2019-04-06T09:22:46.080Z,16.30
2019-04-06T09:25:14.668Z,15.95
2019-04-06T09:27:43.220Z,15.28
2019-04-06T09:30:11.884Z,13.85
2019-04-06T09:32:40.445Z,15.03
2019-04-06T09:35:09.172Z,14.98
2019-04-06T09:37:37.846Z,16.52
2019-04-06T09:40:06.661Z,15.05
2019-04-06T09:42:35.282Z,16.15
2019-04-06T09:45:24.393Z,16.05
2019-04-06T09:47:58.049Z,15.75
2019-04-06T09:50:52.046Z,14.00
2019-04-06T09:53:42.782Z,13.93
2019-04-06T09:56:29.504Z,13.43
2019-04-06T09:59:34.602Z,14.18
2019-04-06T10:02:19.271Z,13.83
2019-04-06T10:04:55.817Z,15.00
2019-04-06T10:07:35.073Z,14.60
2019-04-06T10:10:21.713Z,14.45
2019-04-06T10:13:09.374Z,13.45
2019-04-06T10:15:57.047Z,14.07
2019-04-06T10:18:51.170Z,15.08
2019-04-06T10:21:37.572Z,14.03
2019-04-06T10:24:34.460Z,15.05
2019-04-06T10:27:27.617Z,14.20
2019-04-06T10:30:09.341Z,14.70
2019-04-06T10:32:47.403Z,14.00
2019-04-06T10:35:31.732Z,14.38
2019-04-06T10:38:24.745Z,13.50
2019-04-06T10:41:05.970Z,12.47
2019-04-06T10:43:53.646Z,11.55
2019-04-06T10:46:40.774Z,10.85
2019-04-06T10:49:22.147Z,11.48
2019-04-06T10:52:16.526Z,10.35
2019-04-06T10:55:07.170Z,10.23
2019-04-06T10:57:57.710Z,11.57
2019-04-06T11:00:42.144Z,10.82
2019-04-06T11:03:26.090Z,10.40
2019-04-06T11:06:06.453Z,10.48
2019-04-06T11:09:12.676Z,10.00
2019-04-06T11:12:00.605Z,8.30
2019-04-06T11:14:51.438Z,8.58
2019-04-06T11:17:42.013Z,9.10
2019-04-06T11:20:35.482Z,9.70
2019-04-06T11:23:29.319Z,9.45
2019-04-06T11:26:11.309Z,8.28
2019-04-06T11:29:05.507Z,7.90
2019-04-06T11:31:57.385Z,6.83
2019-04-06T11:34:45.510Z,7.97
2019-04-06T11:37:39.927Z,6.92
2019-04-06T11:40:19.290Z,6.97
2019-04-06T11:42:58.650Z,7.50
2019-04-06T11:45:33.544Z,8.00
2019-04-06T11:48:33.737Z,6.72
2019-04-06T11:51:30.635Z,6.53
2019-04-06T11:54:08.598Z,7.65
2019-04-06T11:56:56.330Z,6.95
2019-04-06T11:59:59.647Z,7.55
2019-04-06T12:02:46.286Z,7.47
2019-04-06T12:05:31.548Z,6.58
2019-04-06T12:08:18.065Z,6.92
2019-04-06T12:10:55.328Z,7.47
2019-04-06T12:13:40.155Z,7.33
2019-04-06T12:16:26.728Z,7.55
2019-04-06T12:19:13.603Z,7.15
2019-04-06T12:22:04.694Z,7.33
2019-04-06T12:25:01.713Z,7.22
2019-04-06T12:27:50.850Z,7.12
2019-04-06T12:30:46.855Z,6.62
2019-04-06T12:33:29.131Z,6.37
2019-04-06T12:36:07.063Z,6.92
2019-04-06T12:38:54.056Z,6.03
2019-04-06T12:41:41.726Z,6.15
2019-04-06T12:44:19.066Z,6.50
2019-04-06T12:47:05.446Z,6.00
2019-04-06T12:49:46.031Z,6.03
2019-04-06T12:52:40.238Z,5.78
2019-04-06T12:55:39.847Z,5.85
2019-04-06T12:58:26.198Z,5.72
2019-04-06T13:01:18.371Z,5.60
2019-04-06T13:04:04.963Z,5.80
2019-04-06T13:06:58.984Z,6.53
2019-04-06T13:09:47.559Z,6.40
2019-04-06T13:12:34.534Z,6.35
2019-04-06T13:15:21.377Z,5.90
2019-04-06T13:18:09.123Z,6.45
2019-04-06T13:20:56.786Z,6.85
2019-04-06T13:23:41.030Z,7.03
2019-04-06T13:26:35.146Z,6.22
2019-04-06T13:29:29.224Z,6.47
2019-04-06T13:32:32.194Z,6.78
2019-04-06T13:35:10.235Z,5.72
2019-04-06T13:37:58.863Z,6.00
2019-04-06T13:40:52.710Z,6.40
2019-04-06T13:43:27.555Z,6.28
2019-04-06T13:46:15.414Z,5.87
2019-04-06T13:49:03.369Z,5.78
2019-04-06T13:51:53.211Z,5.55
2019-04-06T13:54:35.449Z,5.33
2019-04-06T13:57:14.122Z,5.92
2019-04-06T14:00:00.878Z,6.55
2019-04-06T14:02:44.881Z,6.03
2019-04-06T14:05:38.462Z,6.67
2019-04-06T14:08:28.957Z,6.60
2019-04-06T14:11:16.651Z,5.78
2019-04-06T14:14:13.217Z,6.65
2019-04-06T14:17:19.193Z,6.58
2019-04-06T14:20:07.151Z,6.00
2019-04-06T14:23:07.058Z,6.42
2019-04-06T14:26:01.065Z,5.95
2019-04-06T14:28:36.879Z,6.10
2019-04-06T14:31:28.976Z,6.42
2019-04-06T14:34:14.012Z,6.55
2019-04-06T14:36:57.883Z,6.47
2019-04-06T14:39:40.121Z,6.00
2019-04-06T14:42:25.893Z,5.58
2019-04-06T14:45:00.641Z,5.30
2019-04-06T14:47:58.275Z,5.70
2019-04-06T14:50:48.986Z,6.37
2019-04-06T14:53:40.329Z,5.92
2019-04-06T14:56:15.215Z,6.27
2019-04-06T14:59:01.639Z,5.77
2019-04-06T15:01:42.392Z,6.13
2019-04-06T15:04:18.903Z,6.47
2019-04-06T15:07:10.798Z,6.63
2019-04-06T15:09:39.482Z,6.73
2019-04-06T15:12:17.418Z,7.10
2019-04-06T15:15:04.040Z,6.33
2019-04-06T15:17:46.926Z,6.17
2019-04-06T15:20:37.783Z,6.17
2019-04-06T15:23:21.989Z,6.00
2019-04-06T15:26:06.727Z,6.70
2019-04-06T15:28:53.098Z,6.40
2019-04-06T15:31:56.462Z,5.90
2019-04-06T15:34:50.893Z,6.07
2019-04-06T15:37:36.610Z,5.50
2019-04-06T15:40:19.476Z,6.60
2019-04-06T15:43:00.495Z,6.27
2019-04-06T15:45:36.920Z,6.00
2019-04-06T15:48:15.398Z,6.33
2019-04-06T15:51:15.874Z,6.67
2019-04-06T15:53:54.821Z,6.50
2019-04-06T15:56:29.990Z,6.57
2019-04-06T15:59:07.492Z,6.83
2019-04-06T16:01:43.695Z,6.70
2019-04-06T16:04:30.386Z,6.03
2019-04-06T16:07:10.598Z,6.97
2019-04-06T16:09:51.349Z,6.70
2019-04-06T16:12:39.059Z,6.60
2019-04-06T16:15:28.278Z,6.30
2019-04-06T16:18:21.964Z,6.43
2019-04-06T16:21:12.606Z,6.07
2019-04-06T16:23:47.362Z,6.53
2019-04-06T16:26:41.187Z,7.17
2019-04-06T16:29:25.086Z,7.43
2019-04-06T16:32:16.080Z,6.83
2019-04-06T16:34:56.860Z,7.47
2019-04-06T16:37:43.578Z,7.73
2019-04-06T16:40:25.569Z,6.73
2019-04-06T16:43:06.214Z,7.20
2019-04-06T16:45:56.986Z,7.60
2019-04-06T16:48:51.372Z,6.70
2019-04-06T16:51:57.649Z,6.27
2019-04-06T16:54:40.119Z,7.23
2019-04-06T16:57:26.550Z,7.27
2019-04-06T17:00:01.716Z,7.50
2019-04-06T17:02:54.602Z,6.83
2019-04-06T17:05:48.493Z,7.70
2019-04-06T17:08:27.109Z,6.73
2019-04-06T17:11:20.792Z,7.30
2019-04-06T17:14:07.794Z,6.93
2019-04-06T17:16:58.758Z,9.43
2019-04-06T17:19:52.674Z,9.90
2019-04-06T17:22:39.045Z,12.67
2019-04-06T17:25:20.132Z,18.57
2019-04-06T17:27:58.842Z,16.57
2019-04-06T17:30:55.839Z,10.30
2019-04-06T17:33:47.167Z,7.13
2019-04-06T17:36:33.991Z,6.63
2019-04-06T17:39:40.179Z,6.33
2019-04-06T17:42:27.911Z,6.57
2019-04-06T17:45:10.375Z,6.50
2019-04-06T17:48:10.211Z,5.80
2019-04-06T17:51:03.776Z,6.60
2019-04-06T17:53:39.800Z,6.30
2019-04-06T17:56:26.552Z,6.23
2019-04-06T17:59:13.385Z,6.70
2019-04-06T18:01:54.580Z,5.77
2019-04-06T18:04:42.378Z,6.37
2019-04-06T18:07:24.690Z,6.80
2019-04-06T18:10:11.862Z,7.10
2019-04-06T18:13:08.869Z,7.00
2019-04-06T18:15:38.036Z,6.50
2019-04-06T18:18:06.736Z,7.27
2019-04-06T18:20:35.377Z,6.97
2019-04-06T18:23:03.958Z,6.30
2019-04-06T18:25:32.513Z,6.70
2019-04-06T18:28:01.585Z,6.80
2019-04-06T18:30:30.530Z,6.30
2019-04-06T18:33:06.015Z,6.53
2019-04-06T18:35:34.596Z,6.77
2019-04-06T18:38:12.862Z,7.63
2019-04-06T18:40:41.614Z,5.97
2019-04-06T18:43:10.688Z,6.50
2019-04-06T18:45:39.838Z,5.70
2019-04-06T18:48:08.978Z,5.50
2019-04-06T18:50:38.959Z,6.30
2019-04-06T18:53:08.056Z,5.67
2019-04-06T18:55:36.944Z,6.40
2019-04-06T18:58:11.248Z,6.60
2019-04-06T19:00:35.967Z,6.70
2019-04-06T19:03:12.530Z,6.60
2019-04-06T19:05:34.879Z,6.73
2019-04-06T19:08:03.445Z,6.10
2019-04-06T19:10:32.503Z,5.17
2019-04-06T19:13:01.178Z,5.03
2019-04-06T19:15:29.774Z,5.13
2019-04-06T19:17:58.842Z,5.83
2019-04-06T19:20:27.489Z,5.87
2019-04-06T19:22:56.178Z,5.10
2019-04-06T19:25:25.072Z,6.40
2019-04-06T19:27:53.718Z,5.70
2019-04-06T19:30:22.306Z,5.20
2019-04-06T19:32:50.986Z,6.50
2019-04-06T19:35:19.890Z,9.73
2019-04-06T19:37:48.613Z,10.33
2019-04-06T19:40:36.526Z,9.90
2019-04-06T19:43:05.485Z,8.70
2019-04-06T19:45:34.043Z,8.00
2019-04-06T19:48:02.988Z,8.60
2019-04-06T19:50:31.659Z,8.30
2019-04-06T19:53:00.266Z,8.77
2019-04-06T19:55:29.153Z,8.73
2019-04-06T19:57:58.107Z,7.53
2019-04-06T20:00:27.250Z,7.97
2019-04-06T20:02:56.255Z,8.10
2019-04-06T20:05:25.151Z,8.53
2019-04-06T20:07:54.047Z,8.73
2019-04-06T20:10:23.072Z,8.60
2019-04-06T20:12:52.020Z,8.37
2019-04-06T20:15:20.603Z,7.73
2019-04-06T20:17:49.197Z,8.23
2019-04-06T20:20:17.763Z,8.03
2019-04-06T20:22:46.910Z,7.40
2019-04-06T20:25:15.948Z,8.07
2019-04-06T20:27:44.794Z,8.03
2019-04-06T20:30:13.539Z,8.80
2019-04-06T20:33:01.635Z,8.73
2019-04-06T20:35:30.488Z,9.33
2019-04-06T20:37:59.254Z,8.77
2019-04-06T20:40:28.641Z,9.30
2019-04-06T20:42:57.258Z,8.20
2019-04-06T20:45:25.901Z,8.80
2019-04-06T20:47:54.912Z,9.90
2019-04-06T20:50:23.534Z,8.73
2019-04-06T20:52:52.537Z,8.43
2019-04-06T20:55:21.235Z,8.97
2019-04-06T20:57:49.822Z,8.63
2019-04-06T21:00:18.803Z,8.20
2019-04-06T21:02:47.441Z,7.43
2019-04-06T21:05:16.614Z,7.40
2019-04-06T21:07:45.695Z,6.77
2019-04-06T21:10:14.302Z,6.50
2019-04-06T21:12:43.314Z,6.07
2019-04-06T21:15:18.985Z,5.90
2019-04-06T21:17:42.707Z,5.10
2019-04-06T21:20:11.773Z,5.30
2019-04-06T21:22:40.853Z,5.13
2019-04-06T21:25:10.041Z,4.80
2019-04-06T21:27:38.602Z,4.93
2019-04-06T21:30:07.186Z,5.20
2019-04-06T21:32:36.071Z,4.90
2019-04-06T21:35:05.557Z,4.80
2019-04-06T21:37:34.568Z,4.83
2019-04-06T21:40:03.183Z,4.90
2019-04-06T21:42:33.034Z,4.80
2019-04-06T21:45:02.030Z,4.40
2019-04-06T21:47:30.805Z,4.53
2019-04-06T21:49:59.446Z,5.10
2019-04-06T21:52:28.612Z,4.50
2019-04-06T21:54:57.223Z,4.13
2019-04-06T21:57:26.321Z,3.90
2019-04-06T21:59:55.193Z,4.37
